sensor_id;sensor_type;location;lat;lon;timestamp;temperature;humidity
5899;DHT22;2975;50.956;6.962;2023-06-14T00:02:14;18.90;61.20
5899;DHT22;2975;50.956;6.962;2023-06-14T00:04:41;18.80;61.30
5899;DHT22;2975;50.956;6.962;2023-06-14T00:07:07;18.70;61.70
5899;DHT22;2975;50.956;6.962;2023-06-14T00:09:39;18.70;62.20
5899;DHT22;2975;50.956;6.962;2023-06-14T00:12:04;18.60;62.50
5899;DHT22;2975;50.956;6.962;2023-06-14T00:14:31;18.60;62.50
5899;DHT22;2975;50.956;6.962;2023-06-14T00:16:57;18.60;63.10
5899;DHT22;2975;50.956;6.962;2023-06-14T00:19:24;18.60;63.50
5899;DHT22;2975;50.956;6.962;2023-06-14T00:21:50;18.60;63.60
5899;DHT22;2975;50.956;6.962;2023-06-14T00:24:17;18.60;63.30
5899;DHT22;2975;50.956;6.962;2023-06-14T00:26:42;18.50;63.20
5899;DHT22;2975;50.956;6.962;2023-06-14T00:29:08;18.50;63.90
5899;DHT22;2975;50.956;6.962;2023-06-14T00:31:34;18.40;64.20
5899;DHT22;2975;50.956;6.962;2023-06-14T00:33:59;18.40;64.30
5899;DHT22;2975;50.956;6.962;2023-06-14T00:36:25;18.40;64.20
5899;DHT22;2975;50.956;6.962;2023-06-14T00:38:51;18.40;64.60
5899;DHT22;2975;50.956;6.962;2023-06-14T00:41:16;18.40;65.20
5899;DHT22;2975;50.956;6.962;2023-06-14T00:43:42;18.30;65.30
5899;DHT22;2975;50.956;6.962;2023-06-14T00:46:08;18.30;65.60
5899;DHT22;2975;50.956;6.962;2023-06-14T00:48:34;18.30;65.50
5899;DHT22;2975;50.956;6.962;2023-06-14T00:51:00;18.30;65.50
5899;DHT22;2975;50.956;6.962;2023-06-14T00:53:30;18.20;66.00
5899;DHT22;2975;50.956;6.962;2023-06-14T00:55:57;18.20;66.50
5899;DHT22;2975;50.956;6.962;2023-06-14T00:58:22;18.10;66.70
5899;DHT22;2975;50.956;6.962;2023-06-14T01:00:48;18.10;67.00
5899;DHT22;2975;50.956;6.962;2023-06-14T01:03:14;18.00;67.50
5899;DHT22;2975;50.956;6.962;2023-06-14T01:05:47;18.00;67.90
5899;DHT22;2975;50.956;6.962;2023-06-14T01:08:34;17.90;67.90
5899;DHT22;2975;50.956;6.962;2023-06-14T01:11:07;17.90;68.00
5899;DHT22;2975;50.956;6.962;2023-06-14T01:13:38;17.80;67.80
5899;DHT22;2975;50.956;6.962;2023-06-14T01:16:06;17.80;68.50
5899;DHT22;2975;50.956;6.962;2023-06-14T01:18:33;17.70;68.80
5899;DHT22;2975;50.956;6.962;2023-06-14T01:21:00;17.70;68.20
5899;DHT22;2975;50.956;6.962;2023-06-14T01:23:31;17.60;69.10
5899;DHT22;2975;50.956;6.962;2023-06-14T01:25:58;17.60;69.00
5899;DHT22;2975;50.956;6.962;2023-06-14T01:28:25;17.50;69.10
5899;DHT22;2975;50.956;6.962;2023-06-14T01:30:53;17.60;70.00
5899;DHT22;2975;50.956;6.962;2023-06-14T01:33:25;17.50;70.20
5899;DHT22;2975;50.956;6.962;2023-06-14T01:35:52;17.50;70.60
5899;DHT22;2975;50.956;6.962;2023-06-14T01:38:26;17.50;70.70
5899;DHT22;2975;50.956;6.962;2023-06-14T01:40:54;17.40;72.00
5899;DHT22;2975;50.956;6.962;2023-06-14T01:43:21;17.40;72.30
5899;DHT22;2975;50.956;6.962;2023-06-14T01:45:48;17.40;72.50
5899;DHT22;2975;50.956;6.962;2023-06-14T01:48:14;17.30;72.70
5899;DHT22;2975;50.956;6.962;2023-06-14T01:50:40;17.30;73.20
5899;DHT22;2975;50.956;6.962;2023-06-14T01:53:10;17.30;72.90
5899;DHT22;2975;50.956;6.962;2023-06-14T01:55:35;17.30;73.00
5899;DHT22;2975;50.956;6.962;2023-06-14T01:58:05;17.20;73.00
5899;DHT22;2975;50.956;6.962;2023-06-14T02:00:31;17.20;74.40
5899;DHT22;2975;50.956;6.962;2023-06-14T02:02:57;17.20;73.80
5899;DHT22;2975;50.956;6.962;2023-06-14T02:05:23;17.20;74.50
5899;DHT22;2975;50.956;6.962;2023-06-14T02:07:49;17.10;74.40
5899;DHT22;2975;50.956;6.962;2023-06-14T02:10:15;17.10;74.50
5899;DHT22;2975;50.956;6.962;2023-06-14T02:12:43;17.10;75.10
5899;DHT22;2975;50.956;6.962;2023-06-14T02:15:09;17.00;75.10
5899;DHT22;2975;50.956;6.962;2023-06-14T02:17:42;17.00;75.40
5899;DHT22;2975;50.956;6.962;2023-06-14T02:20:08;17.00;75.80
5899;DHT22;2975;50.956;6.962;2023-06-14T02:22:34;16.90;76.10
5899;DHT22;2975;50.956;6.962;2023-06-14T02:25:00;16.90;76.80
5899;DHT22;2975;50.956;6.962;2023-06-14T02:27:26;16.90;77.10
5899;DHT22;2975;50.956;6.962;2023-06-14T02:29:51;16.90;77.00
5899;DHT22;2975;50.956;6.962;2023-06-14T02:32:17;16.90;77.10
5899;DHT22;2975;50.956;6.962;2023-06-14T02:34:42;16.90;77.60
5899;DHT22;2975;50.956;6.962;2023-06-14T02:37:08;16.80;76.60
5899;DHT22;2975;50.956;6.962;2023-06-14T02:39:34;16.80;76.70
5899;DHT22;2975;50.956;6.962;2023-06-14T02:42:00;16.80;77.00
5899;DHT22;2975;50.956;6.962;2023-06-14T02:44:26;16.80;77.70
5899;DHT22;2975;50.956;6.962;2023-06-14T02:46:53;16.70;77.50
5899;DHT22;2975;50.956;6.962;2023-06-14T02:49:19;16.70;77.20
5899;DHT22;2975;50.956;6.962;2023-06-14T02:51:45;16.70;77.40
5899;DHT22;2975;50.956;6.962;2023-06-14T02:54:11;16.60;77.30
5899;DHT22;2975;50.956;6.962;2023-06-14T02:56:36;16.60;77.50
5899;DHT22;2975;50.956;6.962;2023-06-14T02:59:02;16.60;77.70
5899;DHT22;2975;50.956;6.962;2023-06-14T03:01:28;16.60;77.80
5899;DHT22;2975;50.956;6.962;2023-06-14T03:04:02;16.60;77.90
5899;DHT22;2975;50.956;6.962;2023-06-14T03:06:31;16.60;78.00
5899;DHT22;2975;50.956;6.962;2023-06-14T03:08:58;16.50;77.90
5899;DHT22;2975;50.956;6.962;2023-06-14T03:11:25;16.50;78.90
5899;DHT22;2975;50.956;6.962;2023-06-14T03:13:52;16.50;79.20
5899;DHT22;2975;50.956;6.962;2023-06-14T03:16:18;16.50;79.20
5899;DHT22;2975;50.956;6.962;2023-06-14T03:18:52;16.50;79.90
5899;DHT22;2975;50.956;6.962;2023-06-14T03:21:21;16.50;80.00
5899;DHT22;2975;50.956;6.962;2023-06-14T03:23:47;16.50;79.40
5899;DHT22;2975;50.956;6.962;2023-06-14T03:26:14;16.50;79.90
5899;DHT22;2975;50.956;6.962;2023-06-14T03:28:43;16.50;79.20
5899;DHT22;2975;50.956;6.962;2023-06-14T03:31:09;16.50;79.40
5899;DHT22;2975;50.956;6.962;2023-06-14T03:33:35;16.50;80.00
5899;DHT22;2975;50.956;6.962;2023-06-14T03:36:02;16.60;80.10
5899;DHT22;2975;50.956;6.962;2023-06-14T03:38:28;16.60;79.30
5899;DHT22;2975;50.956;6.962;2023-06-14T03:40:53;16.60;79.50
5899;DHT22;2975;50.956;6.962;2023-06-14T03:43:19;16.60;78.80
5899;DHT22;2975;50.956;6.962;2023-06-14T03:45:45;16.60;78.80
5899;DHT22;2975;50.956;6.962;2023-06-14T03:48:11;16.60;79.30
5899;DHT22;2975;50.956;6.962;2023-06-14T03:50:36;16.70;81.30
5899;DHT22;2975;50.956;6.962;2023-06-14T03:53:06;16.90;80.00
5899;DHT22;2975;50.956;6.962;2023-06-14T03:55:32;17.00;78.40
5899;DHT22;2975;50.956;6.962;2023-06-14T03:57:58;17.00;79.20
5899;DHT22;2975;50.956;6.962;2023-06-14T04:00:24;17.10;79.10
5899;DHT22;2975;50.956;6.962;2023-06-14T04:02:49;17.10;77.90
5899;DHT22;2975;50.956;6.962;2023-06-14T04:05:15;17.10;78.00
5899;DHT22;2975;50.956;6.962;2023-06-14T04:07:42;17.10;77.80
5899;DHT22;2975;50.956;6.962;2023-06-14T04:10:11;17.20;77.70
5899;DHT22;2975;50.956;6.962;2023-06-14T04:12:37;17.30;77.20
5899;DHT22;2975;50.956;6.962;2023-06-14T04:15:03;17.40;77.10
5899;DHT22;2975;50.956;6.962;2023-06-14T04:17:31;17.40;77.70
5899;DHT22;2975;50.956;6.962;2023-06-14T04:19:58;17.50;77.40
5899;DHT22;2975;50.956;6.962;2023-06-14T04:22:25;17.50;77.70
5899;DHT22;2975;50.956;6.962;2023-06-14T04:24:54;17.60;77.30
5899;DHT22;2975;50.956;6.962;2023-06-14T04:27:22;17.80;76.50
5899;DHT22;2975;50.956;6.962;2023-06-14T04:29:51;17.90;76.20
5899;DHT22;2975;50.956;6.962;2023-06-14T04:32:18;18.00;76.00
5899;DHT22;2975;50.956;6.962;2023-06-14T04:34:44;18.10;73.20
5899;DHT22;2975;50.956;6.962;2023-06-14T04:37:09;18.30;74.30
5899;DHT22;2975;50.956;6.962;2023-06-14T04:39:37;18.60;73.80
5899;DHT22;2975;50.956;6.962;2023-06-14T04:42:02;19.30;72.70
5899;DHT22;2975;50.956;6.962;2023-06-14T04:44:28;20.30;70.70
5899;DHT22;2975;50.956;6.962;2023-06-14T04:46:57;22.00;67.40
5899;DHT22;2975;50.956;6.962;2023-06-14T04:49:24;23.70;62.90
5899;DHT22;2975;50.956;6.962;2023-06-14T04:51:50;25.50;58.30
5899;DHT22;2975;50.956;6.962;2023-06-14T04:54:23;27.00;52.00
5899;DHT22;2975;50.956;6.962;2023-06-14T04:56:51;28.40;46.90
5899;DHT22;2975;50.956;6.962;2023-06-14T04:59:16;29.40;45.20
5899;DHT22;2975;50.956;6.962;2023-06-14T05:01:43;30.20;42.70
5899;DHT22;2975;50.956;6.962;2023-06-14T05:04:15;30.50;41.80
5899;DHT22;2975;50.956;6.962;2023-06-14T05:06:45;31.00;41.10
5899;DHT22;2975;50.956;6.962;2023-06-14T05:09:13;30.50;40.90
5899;DHT22;2975;50.956;6.962;2023-06-14T05:11:38;30.70;41.00
5899;DHT22;2975;50.956;6.962;2023-06-14T05:14:04;31.30;40.90
5899;DHT22;2975;50.956;6.962;2023-06-14T05:16:29;32.00;39.80
5899;DHT22;2975;50.956;6.962;2023-06-14T05:18:55;32.70;38.80
5899;DHT22;2975;50.956;6.962;2023-06-14T05:21:21;33.40;37.50
5899;DHT22;2975;50.956;6.962;2023-06-14T05:23:46;34.20;36.80
5899;DHT22;2975;50.956;6.962;2023-06-14T05:26:12;34.50;35.50
5899;DHT22;2975;50.956;6.962;2023-06-14T05:28:38;34.50;35.60
5899;DHT22;2975;50.956;6.962;2023-06-14T05:31:03;35.60;34.80
5899;DHT22;2975;50.956;6.962;2023-06-14T05:33:29;36.20;34.40
5899;DHT22;2975;50.956;6.962;2023-06-14T05:35:55;36.60;33.50
5899;DHT22;2975;50.956;6.962;2023-06-14T05:38:21;37.10;32.50
5899;DHT22;2975;50.956;6.962;2023-06-14T05:40:46;37.50;32.80
5899;DHT22;2975;50.956;6.962;2023-06-14T05:43:12;38.00;31.90
5899;DHT22;2975;50.956;6.962;2023-06-14T05:45:37;37.70;31.60
5899;DHT22;2975;50.956;6.962;2023-06-14T05:48:03;38.00;31.90
5899;DHT22;2975;50.956;6.962;2023-06-14T05:50:29;37.90;31.10
5899;DHT22;2975;50.956;6.962;2023-06-14T05:52:55;38.10;31.80
5899;DHT22;2975;50.956;6.962;2023-06-14T05:55:21;38.80;30.30
5899;DHT22;2975;50.956;6.962;2023-06-14T05:57:47;39.20;30.40
5899;DHT22;2975;50.956;6.962;2023-06-14T06:00:14;39.40;30.00
5899;DHT22;2975;50.956;6.962;2023-06-14T06:02:42;39.60;30.30
5899;DHT22;2975;50.956;6.962;2023-06-14T06:05:11;39.70;29.60
5899;DHT22;2975;50.956;6.962;2023-06-14T06:07:37;38.70;29.10
5899;DHT22;2975;50.956;6.962;2023-06-14T06:10:04;37.60;30.20
5899;DHT22;2975;50.956;6.962;2023-06-14T06:12:30;37.60;30.00
5899;DHT22;2975;50.956;6.962;2023-06-14T06:14:56;37.30;30.10
5899;DHT22;2975;50.956;6.962;2023-06-14T06:17:22;37.40;30.90
5899;DHT22;2975;50.956;6.962;2023-06-14T06:19:47;37.70;31.00
5899;DHT22;2975;50.956;6.962;2023-06-14T06:22:13;38.80;30.30
5899;DHT22;2975;50.956;6.962;2023-06-14T06:24:38;39.40;29.30
5899;DHT22;2975;50.956;6.962;2023-06-14T06:27:04;39.60;28.90
5899;DHT22;2975;50.956;6.962;2023-06-14T06:29:30;39.50;29.30
5899;DHT22;2975;50.956;6.962;2023-06-14T06:31:56;39.30;29.20
5899;DHT22;2975;50.956;6.962;2023-06-14T06:34:22;40.00;29.10
5899;DHT22;2975;50.956;6.962;2023-06-14T06:36:47;40.90;28.40
5899;DHT22;2975;50.956;6.962;2023-06-14T06:39:13;40.60;27.90
5899;DHT22;2975;50.956;6.962;2023-06-14T06:41:40;38.50;29.60
5899;DHT22;2975;50.956;6.962;2023-06-14T06:44:06;38.40;29.00
5899;DHT22;2975;50.956;6.962;2023-06-14T06:46:33;34.60;30.00
5899;DHT22;2975;50.956;6.962;2023-06-14T06:48:59;30.90;33.70
5899;DHT22;2975;50.956;6.962;2023-06-14T06:51:25;28.50;37.50
5899;DHT22;2975;50.956;6.962;2023-06-14T06:53:54;26.70;40.20
5899;DHT22;2975;50.956;6.962;2023-06-14T06:56:20;25.10;43.20
5899;DHT22;2975;50.956;6.962;2023-06-14T06:58:48;24.20;44.80
5899;DHT22;2975;50.956;6.962;2023-06-14T07:01:15;23.70;46.00
5899;DHT22;2975;50.956;6.962;2023-06-14T07:03:41;23.40;47.20
5899;DHT22;2975;50.956;6.962;2023-06-14T07:06:06;23.30;47.50
5899;DHT22;2975;50.956;6.962;2023-06-14T07:08:32;23.20;48.40
5899;DHT22;2975;50.956;6.962;2023-06-14T07:10:58;23.20;47.90
5899;DHT22;2975;50.956;6.962;2023-06-14T07:13:23;23.20;48.70
5899;DHT22;2975;50.956;6.962;2023-06-14T07:15:49;23.20;48.00
5899;DHT22;2975;50.956;6.962;2023-06-14T07:18:15;23.30;50.60
5899;DHT22;2975;50.956;6.962;2023-06-14T07:20:41;23.40;50.10
5899;DHT22;2975;50.956;6.962;2023-06-14T07:23:08;23.50;49.00
5899;DHT22;2975;50.956;6.962;2023-06-14T07:25:33;23.50;48.70
5899;DHT22;2975;50.956;6.962;2023-06-14T07:27:59;23.50;49.20
5899;DHT22;2975;50.956;6.962;2023-06-14T07:30:24;23.50;48.30
5899;DHT22;2975;50.956;6.962;2023-06-14T07:32:53;23.40;48.90
5899;DHT22;2975;50.956;6.962;2023-06-14T07:35:19;23.30;48.30
5899;DHT22;2975;50.956;6.962;2023-06-14T07:37:45;23.20;48.70
5899;DHT22;2975;50.956;6.962;2023-06-14T07:40:13;23.30;49.00
5899;DHT22;2975;50.956;6.962;2023-06-14T07:42:39;23.40;48.40
5899;DHT22;2975;50.956;6.962;2023-06-14T07:45:05;23.40;46.80
5899;DHT22;2975;50.956;6.962;2023-06-14T07:47:32;23.20;47.90
5899;DHT22;2975;50.956;6.962;2023-06-14T07:49:57;23.20;47.50
5899;DHT22;2975;50.956;6.962;2023-06-14T07:52:23;23.30;46.60
5899;DHT22;2975;50.956;6.962;2023-06-14T07:54:48;23.40;45.90
5899;DHT22;2975;50.956;6.962;2023-06-14T07:57:14;23.40;45.00
5899;DHT22;2975;50.956;6.962;2023-06-14T07:59:40;23.40;44.70
5899;DHT22;2975;50.956;6.962;2023-06-14T08:02:06;23.40;46.40
5899;DHT22;2975;50.956;6.962;2023-06-14T08:04:32;23.60;46.20
5899;DHT22;2975;50.956;6.962;2023-06-14T08:06:58;23.70;46.10
5899;DHT22;2975;50.956;6.962;2023-06-14T08:09:23;23.60;44.70
5899;DHT22;2975;50.956;6.962;2023-06-14T08:11:50;23.40;44.50
5899;DHT22;2975;50.956;6.962;2023-06-14T08:14:16;23.40;43.40
5899;DHT22;2975;50.956;6.962;2023-06-14T08:16:41;23.40;42.90
5899;DHT22;2975;50.956;6.962;2023-06-14T08:19:07;23.20;43.10
5899;DHT22;2975;50.956;6.962;2023-06-14T08:21:33;23.30;43.20
5899;DHT22;2975;50.956;6.962;2023-06-14T08:23:59;23.40;41.60
5899;DHT22;2975;50.956;6.962;2023-06-14T08:26:25;23.40;41.00
5899;DHT22;2975;50.956;6.962;2023-06-14T08:28:55;23.60;40.90
5899;DHT22;2975;50.956;6.962;2023-06-14T08:31:21;23.60;41.00
5899;DHT22;2975;50.956;6.962;2023-06-14T08:33:46;23.60;41.40
5899;DHT22;2975;50.956;6.962;2023-06-14T08:36:12;23.60;40.90
5899;DHT22;2975;50.956;6.962;2023-06-14T08:38:38;23.50;40.60
5899;DHT22;2975;50.956;6.962;2023-06-14T08:41:05;23.20;41.30
5899;DHT22;2975;50.956;6.962;2023-06-14T08:43:34;23.20;42.30
5899;DHT22;2975;50.956;6.962;2023-06-14T08:46:04;23.30;41.90
5899;DHT22;2975;50.956;6.962;2023-06-14T08:48:30;23.50;42.40
5899;DHT22;2975;50.956;6.962;2023-06-14T08:51:02;23.50;41.30
5899;DHT22;2975;50.956;6.962;2023-06-14T08:53:31;23.60;41.10
5899;DHT22;2975;50.956;6.962;2023-06-14T08:55:58;23.70;40.60
5899;DHT22;2975;50.956;6.962;2023-06-14T08:58:27;23.50;41.20
5899;DHT22;2975;50.956;6.962;2023-06-14T09:00:55;23.40;42.30
5899;DHT22;2975;50.956;6.962;2023-06-14T09:03:21;23.50;42.00
5899;DHT22;2975;50.956;6.962;2023-06-14T09:05:48;23.40;42.40
5899;DHT22;2975;50.956;6.962;2023-06-14T09:08:15;23.50;42.10
5899;DHT22;2975;50.956;6.962;2023-06-14T09:10:41;23.60;41.70
5899;DHT22;2975;50.956;6.962;2023-06-14T09:13:07;23.50;41.50
5899;DHT22;2975;50.956;6.962;2023-06-14T09:15:34;23.40;41.40
5899;DHT22;2975;50.956;6.962;2023-06-14T09:18:03;23.60;42.00
5899;DHT22;2975;50.956;6.962;2023-06-14T09:20:30;23.50;41.90
5899;DHT22;2975;50.956;6.962;2023-06-14T09:22:56;23.30;41.70
5899;DHT22;2975;50.956;6.962;2023-06-14T09:25:21;23.40;41.70
5899;DHT22;2975;50.956;6.962;2023-06-14T09:27:48;23.40;41.50
5899;DHT22;2975;50.956;6.962;2023-06-14T09:30:13;23.50;42.50
5899;DHT22;2975;50.956;6.962;2023-06-14T09:32:40;23.60;42.10
5899;DHT22;2975;50.956;6.962;2023-06-14T09:35:07;23.50;41.60
5899;DHT22;2975;50.956;6.962;2023-06-14T09:37:33;23.40;41.50
5899;DHT22;2975;50.956;6.962;2023-06-14T09:40:00;23.50;41.70
5899;DHT22;2975;50.956;6.962;2023-06-14T09:42:26;23.40;42.60
5899;DHT22;2975;50.956;6.962;2023-06-14T09:44:54;23.60;42.80
5899;DHT22;2975;50.956;6.962;2023-06-14T09:47:20;23.70;42.10
5899;DHT22;2975;50.956;6.962;2023-06-14T09:49:47;23.80;42.10
5899;DHT22;2975;50.956;6.962;2023-06-14T09:52:20;24.00;41.90
5899;DHT22;2975;50.956;6.962;2023-06-14T09:54:47;24.00;42.10
5899;DHT22;2975;50.956;6.962;2023-06-14T09:57:15;24.20;42.20
5899;DHT22;2975;50.956;6.962;2023-06-14T09:59:43;24.30;41.50
5899;DHT22;2975;50.956;6.962;2023-06-14T10:02:29;24.20;40.90
5899;DHT22;2975;50.956;6.962;2023-06-14T10:05:03;24.10;41.40
5899;DHT22;2975;50.956;6.962;2023-06-14T10:07:44;24.10;41.60
5899;DHT22;2975;50.956;6.962;2023-06-14T10:10:13;24.20;42.20
5899;DHT22;2975;50.956;6.962;2023-06-14T10:12:40;24.20;43.20
5899;DHT22;2975;50.956;6.962;2023-06-14T10:15:09;24.40;43.10
5899;DHT22;2975;50.956;6.962;2023-06-14T10:17:42;24.30;42.80
5899;DHT22;2975;50.956;6.962;2023-06-14T10:20:39;24.30;43.50
5899;DHT22;2975;50.956;6.962;2023-06-14T10:23:12;24.30;42.10
5899;DHT22;2975;50.956;6.962;2023-06-14T10:25:39;24.00;42.40
5899;DHT22;2975;50.956;6.962;2023-06-14T10:28:21;24.20;43.00
5899;DHT22;2975;50.956;6.962;2023-06-14T10:31:09;23.80;43.40
5899;DHT22;2975;50.956;6.962;2023-06-14T10:33:48;24.00;44.20
5899;DHT22;2975;50.956;6.962;2023-06-14T10:36:28;24.20;44.10
5899;DHT22;2975;50.956;6.962;2023-06-14T10:39:17;23.90;44.70
5899;DHT22;2975;50.956;6.962;2023-06-14T10:41:55;24.20;43.70
5899;DHT22;2975;50.956;6.962;2023-06-14T10:49:20;24.40;43.10
5899;DHT22;2975;50.956;6.962;2023-06-14T10:51:50;24.50;42.50
5899;DHT22;2975;50.956;6.962;2023-06-14T10:54:16;24.40;42.20
5899;DHT22;2975;50.956;6.962;2023-06-14T10:56:48;24.30;41.90
5899;DHT22;2975;50.956;6.962;2023-06-14T10:59:14;24.30;42.70
5899;DHT22;2975;50.956;6.962;2023-06-14T11:04:50;24.30;43.10
5899;DHT22;2975;50.956;6.962;2023-06-14T11:12:49;25.00;42.40
5899;DHT22;2975;50.956;6.962;2023-06-14T11:15:16;24.60;42.90
5899;DHT22;2975;50.956;6.962;2023-06-14T11:17:51;24.70;44.40
5899;DHT22;2975;50.956;6.962;2023-06-14T11:20:19;25.00;44.40
5899;DHT22;2975;50.956;6.962;2023-06-14T11:22:45;25.00;44.10
5899;DHT22;2975;50.956;6.962;2023-06-14T11:25:14;25.20;44.50
5899;DHT22;2975;50.956;6.962;2023-06-14T11:27:42;25.50;44.50
5899;DHT22;2975;50.956;6.962;2023-06-14T11:30:08;25.60;45.00
5899;DHT22;2975;50.956;6.962;2023-06-14T11:32:36;25.50;45.40
5899;DHT22;2975;50.956;6.962;2023-06-14T11:35:02;25.40;44.90
5899;DHT22;2975;50.956;6.962;2023-06-14T11:37:30;25.10;45.10
5899;DHT22;2975;50.956;6.962;2023-06-14T11:40:00;25.00;45.80
5899;DHT22;2975;50.956;6.962;2023-06-14T11:42:29;25.10;46.00
5899;DHT22;2975;50.956;6.962;2023-06-14T11:44:55;24.70;46.10
5899;DHT22;2975;50.956;6.962;2023-06-14T11:47:22;24.90;46.30
5899;DHT22;2975;50.956;6.962;2023-06-14T11:49:47;24.90;47.30
5899;DHT22;2975;50.956;6.962;2023-06-14T11:52:14;24.90;47.20
5899;DHT22;2975;50.956;6.962;2023-06-14T11:54:40;25.10;47.10
5899;DHT22;2975;50.956;6.962;2023-06-14T11:57:07;25.20;47.20
5899;DHT22;2975;50.956;6.962;2023-06-14T11:59:38;25.60;46.20
5899;DHT22;2975;50.956;6.962;2023-06-14T12:02:05;25.60;45.60
5899;DHT22;2975;50.956;6.962;2023-06-14T12:04:31;25.80;45.30
5899;DHT22;2975;50.956;6.962;2023-06-14T12:06:57;25.80;45.80
5899;DHT22;2975;50.956;6.962;2023-06-14T12:09:35;25.80;45.60
5899;DHT22;2975;50.956;6.962;2023-06-14T12:12:00;25.70;43.80
5899;DHT22;2975;50.956;6.962;2023-06-14T12:14:30;25.60;44.50
5899;DHT22;2975;50.956;6.962;2023-06-14T12:17:06;25.50;43.50
5899;DHT22;2975;50.956;6.962;2023-06-14T12:19:32;25.40;44.60
5899;DHT22;2975;50.956;6.962;2023-06-14T12:21:59;25.20;44.80
5899;DHT22;2975;50.956;6.962;2023-06-14T12:24:29;25.30;44.10
5899;DHT22;2975;50.956;6.962;2023-06-14T12:26:57;25.30;45.10
5899;DHT22;2975;50.956;6.962;2023-06-14T12:29:25;25.50;45.40
5899;DHT22;2975;50.956;6.962;2023-06-14T12:31:51;25.90;43.30
5899;DHT22;2975;50.956;6.962;2023-06-14T12:34:19;26.10;42.70
5899;DHT22;2975;50.956;6.962;2023-06-14T12:36:45;26.20;42.80
5899;DHT22;2975;50.956;6.962;2023-06-14T12:39:12;26.40;42.30
5899;DHT22;2975;50.956;6.962;2023-06-14T12:41:38;26.40;41.90
5899;DHT22;2975;50.956;6.962;2023-06-14T12:44:03;26.50;41.60
5899;DHT22;2975;50.956;6.962;2023-06-14T12:46:30;26.50;42.50
5899;DHT22;2975;50.956;6.962;2023-06-14T12:48:56;26.40;43.10
5899;DHT22;2975;50.956;6.962;2023-06-14T12:51:22;26.40;43.20
5899;DHT22;2975;50.956;6.962;2023-06-14T12:53:49;26.40;42.90
5899;DHT22;2975;50.956;6.962;2023-06-14T12:56:14;26.50;42.60
5899;DHT22;2975;50.956;6.962;2023-06-14T12:58:41;26.40;42.20
5899;DHT22;2975;50.956;6.962;2023-06-14T13:01:07;26.30;43.00
5899;DHT22;2975;50.956;6.962;2023-06-14T13:03:33;26.40;43.20
5899;DHT22;2975;50.956;6.962;2023-06-14T13:06:00;26.40;42.90
5899;DHT22;2975;50.956;6.962;2023-06-14T13:08:26;26.30;43.60
5899;DHT22;2975;50.956;6.962;2023-06-14T13:10:51;26.10;44.10
5899;DHT22;2975;50.956;6.962;2023-06-14T13:13:17;25.90;43.80
5899;DHT22;2975;50.956;6.962;2023-06-14T13:15:43;25.70;44.30
5899;DHT22;2975;50.956;6.962;2023-06-14T13:18:11;25.90;44.80
5899;DHT22;2975;50.956;6.962;2023-06-14T13:20:38;26.10;44.60
5899;DHT22;2975;50.956;6.962;2023-06-14T13:23:04;26.30;43.90
5899;DHT22;2975;50.956;6.962;2023-06-14T13:25:31;26.30;43.90
5899;DHT22;2975;50.956;6.962;2023-06-14T13:27:57;26.20;43.60
5899;DHT22;2975;50.956;6.962;2023-06-14T13:30:22;26.10;43.70
5899;DHT22;2975;50.956;6.962;2023-06-14T13:32:48;26.00;43.70
5899;DHT22;2975;50.956;6.962;2023-06-14T13:35:14;26.20;44.70
5899;DHT22;2975;50.956;6.962;2023-06-14T13:37:39;26.40;44.20
5899;DHT22;2975;50.956;6.962;2023-06-14T13:40:06;26.70;43.10
5899;DHT22;2975;50.956;6.962;2023-06-14T13:42:32;27.00;42.70
5899;DHT22;2975;50.956;6.962;2023-06-14T13:44:59;27.10;43.00
5899;DHT22;2975;50.956;6.962;2023-06-14T13:47:24;27.20;42.80
5899;DHT22;2975;50.956;6.962;2023-06-14T13:49:50;27.30;42.90
5899;DHT22;2975;50.956;6.962;2023-06-14T13:52:16;27.50;42.50
5899;DHT22;2975;50.956;6.962;2023-06-14T13:54:41;27.50;41.70
5899;DHT22;2975;50.956;6.962;2023-06-14T13:57:07;27.30;41.30
5899;DHT22;2975;50.956;6.962;2023-06-14T13:59:33;27.00;41.80
5899;DHT22;2975;50.956;6.962;2023-06-14T14:01:58;26.70;42.00
5899;DHT22;2975;50.956;6.962;2023-06-14T14:04:24;26.80;42.60
5899;DHT22;2975;50.956;6.962;2023-06-14T14:06:50;26.90;41.90
5899;DHT22;2975;50.956;6.962;2023-06-14T14:09:15;27.00;41.90
5899;DHT22;2975;50.956;6.962;2023-06-14T14:11:41;27.10;42.20
5899;DHT22;2975;50.956;6.962;2023-06-14T14:14:07;27.20;41.60
5899;DHT22;2975;50.956;6.962;2023-06-14T14:16:33;27.30;41.30
5899;DHT22;2975;50.956;6.962;2023-06-14T14:19:00;27.10;41.40
5899;DHT22;2975;50.956;6.962;2023-06-14T14:21:27;27.10;41.50
5899;DHT22;2975;50.956;6.962;2023-06-14T14:23:52;27.00;41.00
5899;DHT22;2975;50.956;6.962;2023-06-14T14:26:18;27.00;41.60
5899;DHT22;2975;50.956;6.962;2023-06-14T14:28:44;27.10;41.70
5899;DHT22;2975;50.956;6.962;2023-06-14T14:31:09;26.70;42.10
5899;DHT22;2975;50.956;6.962;2023-06-14T14:33:35;26.50;42.80
5899;DHT22;2975;50.956;6.962;2023-06-14T14:36:01;26.60;42.90
5899;DHT22;2975;50.956;6.962;2023-06-14T14:38:29;26.80;42.80
5899;DHT22;2975;50.956;6.962;2023-06-14T14:40:54;26.50;42.20
5899;DHT22;2975;50.956;6.962;2023-06-14T14:43:20;26.30;43.80
5899;DHT22;2975;50.956;6.962;2023-06-14T14:45:46;26.20;42.40
5899;DHT22;2975;50.956;6.962;2023-06-14T14:48:11;25.90;41.90
5899;DHT22;2975;50.956;6.962;2023-06-14T14:50:37;25.70;42.20
5899;DHT22;2975;50.956;6.962;2023-06-14T14:53:02;25.60;43.10
5899;DHT22;2975;50.956;6.962;2023-06-14T14:55:28;25.80;42.50
5899;DHT22;2975;50.956;6.962;2023-06-14T14:57:54;25.80;42.50
5899;DHT22;2975;50.956;6.962;2023-06-14T15:00:19;25.70;42.60
5899;DHT22;2975;50.956;6.962;2023-06-14T15:02:45;25.80;42.30
5899;DHT22;2975;50.956;6.962;2023-06-14T15:05:11;25.70;42.90
5899;DHT22;2975;50.956;6.962;2023-06-14T15:07:36;25.80;43.10
5899;DHT22;2975;50.956;6.962;2023-06-14T15:10:06;25.90;43.10
5899;DHT22;2975;50.956;6.962;2023-06-14T15:12:32;25.90;43.20
5899;DHT22;2975;50.956;6.962;2023-06-14T15:14:57;26.20;43.70
5899;DHT22;2975;50.956;6.962;2023-06-14T15:17:23;26.20;42.90
5899;DHT22;2975;50.956;6.962;2023-06-14T15:19:50;26.00;42.40
5899;DHT22;2975;50.956;6.962;2023-06-14T15:22:16;25.80;43.30
5899;DHT22;2975;50.956;6.962;2023-06-14T15:24:42;25.70;42.60
5899;DHT22;2975;50.956;6.962;2023-06-14T15:27:08;25.70;42.60
5899;DHT22;2975;50.956;6.962;2023-06-14T15:29:34;25.80;43.00
5899;DHT22;2975;50.956;6.962;2023-06-14T15:32:01;25.90;43.40
5899;DHT22;2975;50.956;6.962;2023-06-14T15:34:27;26.10;43.10
5899;DHT22;2975;50.956;6.962;2023-06-14T15:36:52;26.20;42.20
5899;DHT22;2975;50.956;6.962;2023-06-14T15:39:18;26.20;43.20
5899;DHT22;2975;50.956;6.962;2023-06-14T15:41:43;26.40;42.60
5899;DHT22;2975;50.956;6.962;2023-06-14T15:44:09;26.80;42.20
5899;DHT22;2975;50.956;6.962;2023-06-14T15:46:36;27.10;42.00
5899;DHT22;2975;50.956;6.962;2023-06-14T15:49:08;27.10;41.50
5899;DHT22;2975;50.956;6.962;2023-06-14T15:51:34;26.90;41.60
5899;DHT22;2975;50.956;6.962;2023-06-14T15:54:00;26.60;42.30
5899;DHT22;2975;50.956;6.962;2023-06-14T15:56:25;26.40;42.90
5899;DHT22;2975;50.956;6.962;2023-06-14T15:58:51;26.10;43.50
5899;DHT22;2975;50.956;6.962;2023-06-14T16:01:17;25.90;42.60
5899;DHT22;2975;50.956;6.962;2023-06-14T16:03:42;25.80;43.60
5899;DHT22;2975;50.956;6.962;2023-06-14T16:06:08;25.80;44.00
5899;DHT22;2975;50.956;6.962;2023-06-14T16:08:34;25.90;44.30
5899;DHT22;2975;50.956;6.962;2023-06-14T16:10:59;25.60;43.10
5899;DHT22;2975;50.956;6.962;2023-06-14T16:13:25;25.60;43.00
5899;DHT22;2975;50.956;6.962;2023-06-14T16:15:50;25.50;43.00